KDNN/DNN METAR and TAF weather

Enter ICAO airport designator
Station Type Date Time Source
KDNN METAR 2018/10/21 03:55 UTC NOAA

KDNN 210355Z AUTO 00000KT 10SM CLR 09/09 A3013 RMK AO2


Station Type Date Time Source
KDNN Decoded METAR 2018/10/21 03:55 UTC NOAA

Dalton, Dalton Municipal Airport, GA, United States (KDNN) 34-43-18N 084-52-09W
Oct 20, 2018 - 11:55 PM EDT / 2018.10.21 0355 UTC
Wind: Calm:0
Visibility: 10 mile(s):0
Sky conditions: clear
Temperature: 48 F (9 C)
Dew Point: 48 F (9 C)
Relative Humidity: 100%
Pressure (altimeter): 30.13 in. Hg (1020 hPa)
ob: KDNN 210355Z AUTO 00000KT 10SM CLR 09/09 A3013 RMK AO2
cycle: 4

Station Type Date Time Source
KDNN TAF UTC NOAA

Error!


Example: see airport list